createdAt,value
2018-04-08T00:21:40.669Z,9.6
2018-04-08T00:27:08.034Z,9.6
2018-04-08T00:32:36.418Z,9.5
2018-04-08T00:38:04.825Z,9.5
2018-04-08T00:43:32.215Z,9.4
2018-04-08T00:48:59.617Z,9.4
2018-04-08T00:54:27.917Z,9.3
2018-04-08T00:59:55.340Z,9.3
2018-04-08T01:05:22.659Z,9.2
2018-04-08T01:10:51.029Z,9.2
2018-04-08T01:16:19.439Z,9.1
2018-04-08T01:21:46.720Z,9.1
2018-04-08T01:27:15.084Z,9
2018-04-08T01:32:42.716Z,9
2018-04-08T01:38:09.780Z,8.9
2018-04-08T01:43:37.094Z,8.9
2018-04-08T01:49:05.397Z,8.8
2018-04-08T01:54:32.922Z,8.8
2018-04-08T02:00:00.048Z,8.7
2018-04-08T02:05:27.344Z,8.6
2018-04-08T02:16:22.942Z,8.4
2018-04-08T02:21:50.272Z,8.1
2018-04-08T02:27:17.492Z,7.9
2018-04-08T02:32:45.687Z,8
2018-04-08T02:38:12.930Z,8
2018-04-08T02:43:40.210Z,8
2018-04-08T02:49:07.496Z,8.1
2018-04-08T02:54:34.707Z,8
2018-04-08T03:00:02.927Z,8
2018-04-08T03:05:31.267Z,8
2018-04-08T03:10:58.448Z,8
2018-04-08T03:16:25.675Z,7.9
2018-04-08T03:21:53.913Z,7.9
2018-04-08T03:27:21.177Z,7.8
2018-04-08T03:32:49.380Z,7.8
2018-04-08T03:38:16.672Z,7.7
2018-04-08T03:43:44.828Z,7.7
2018-04-08T03:49:12.076Z,7.7
2018-04-08T03:54:39.279Z,7.6
2018-04-08T04:00:06.483Z,7.7
2018-04-08T04:05:33.859Z,7.6
2018-04-08T04:11:00.909Z,7.5
2018-04-08T04:16:28.124Z,7.5
2018-04-08T04:21:56.317Z,7.5
2018-04-08T04:27:23.527Z,7.5
2018-04-08T04:38:17.971Z,7.5
2018-04-08T04:43:46.212Z,7.5
2018-04-08T04:49:13.342Z,7.5
2018-04-08T04:54:41.535Z,7.4
2018-04-08T05:00:09.733Z,7.4
2018-04-08T05:05:36.923Z,7.5
2018-04-08T05:11:04.206Z,7.5
2018-04-08T05:16:31.576Z,7.5
2018-04-08T05:21:59.683Z,7.6
2018-04-08T05:27:26.833Z,7.7
2018-04-08T05:32:55.083Z,7.8
2018-04-08T05:38:22.333Z,7.9
2018-04-08T05:43:49.515Z,8
2018-04-08T05:49:17.782Z,8.2
2018-04-08T05:54:45.045Z,8.4
2018-04-08T06:00:13.328Z,8.6
2018-04-08T06:05:40.715Z,8.8
2018-04-08T06:11:08.031Z,9
2018-04-08T06:16:36.312Z,9.2
2018-04-08T06:22:03.714Z,9.3
2018-04-08T06:27:32.041Z,9.5
2018-04-08T06:32:59.401Z,9.6
2018-04-08T06:38:27.838Z,9.8
2018-04-08T06:43:55.262Z,10
2018-04-08T06:49:22.677Z,10.1
2018-04-08T06:54:51.100Z,10.3
2018-04-08T07:00:18.574Z,10.4
2018-04-08T07:05:47.016Z,10.5
2018-04-08T07:11:14.488Z,10.7
2018-04-08T07:16:42.055Z,10.8
2018-04-08T07:22:09.576Z,10.9
2018-04-08T07:27:37.041Z,11.1
2018-04-08T07:33:04.552Z,11.3
2018-04-08T07:38:33.110Z,11.5
2018-04-08T07:44:01.722Z,11.7
2018-04-08T07:49:30.284Z,11.9
2018-04-08T07:54:58.880Z,12.1
2018-04-08T08:00:26.553Z,12.3
2018-04-08T08:05:55.272Z,12.4
2018-04-08T08:11:23.846Z,12.6
2018-04-08T08:16:51.596Z,12.8
2018-04-08T08:22:20.288Z,13.1
2018-04-08T08:27:48.982Z,13.3
2018-04-08T08:33:16.758Z,13.5
2018-04-08T08:38:45.496Z,13.7
2018-04-08T08:44:14.346Z,14
2018-04-08T08:49:42.102Z,14.1
2018-04-08T09:00:39.857Z,14.6
2018-04-08T09:06:07.747Z,14.9
2018-04-08T09:11:35.625Z,15.1
2018-04-08T09:17:04.568Z,15.2
2018-04-08T09:22:32.540Z,15.4
2018-04-08T09:28:00.590Z,15.7
2018-04-08T09:33:29.585Z,16
2018-04-08T09:38:57.554Z,16.2
2018-04-08T09:44:26.645Z,16.4
2018-04-08T09:49:54.708Z,16.6
2018-04-08T09:55:22.828Z,16.7
2018-04-08T10:00:50.959Z,16.9
2018-04-08T10:06:19.097Z,17.3
2018-04-08T10:11:47.304Z,17.5
2018-04-08T10:17:15.521Z,17.7
2018-04-08T10:22:44.696Z,17.8
2018-04-08T10:28:13.993Z,18
2018-04-08T10:33:43.320Z,18.1
2018-04-08T10:39:11.526Z,18.3
2018-04-08T10:44:40.819Z,18.5
2018-04-08T10:50:10.215Z,18.7
2018-04-08T10:55:38.541Z,18.8
2018-04-08T11:01:07.833Z,19
2018-04-08T11:12:04.624Z,19.2
2018-04-08T11:17:33.024Z,19.3
2018-04-08T11:23:02.434Z,19.5
2018-04-08T11:28:30.897Z,19.7
2018-04-08T11:34:00.375Z,19.8
2018-04-08T11:39:29.965Z,20
2018-04-08T11:44:59.387Z,20.2
2018-04-08T11:50:27.894Z,20.3
2018-04-08T11:55:57.530Z,20.4
2018-04-08T12:01:26.000Z,20.7
2018-04-08T12:06:55.645Z,21.5
2018-04-08T12:12:25.352Z,22.5
2018-04-08T12:17:54.211Z,23.3
2018-04-08T12:23:24.175Z,23.9
2018-04-08T12:28:54.253Z,24.7
2018-04-08T12:34:24.346Z,25
2018-04-08T12:39:54.501Z,25.2
2018-04-08T12:45:23.714Z,25.6
2018-04-08T12:50:52.923Z,25.8
2018-04-08T12:56:23.204Z,26
2018-04-08T13:01:52.488Z,26.5
2018-04-08T13:12:53.270Z,27
2018-04-08T13:18:23.695Z,27.1
2018-04-08T13:23:54.118Z,27.4
2018-04-08T13:29:23.642Z,27.9
2018-04-08T13:34:53.188Z,28.4
2018-04-08T13:40:23.821Z,28.5
2018-04-08T13:45:53.650Z,28.8
2018-04-08T13:51:23.192Z,28.9
2018-04-08T13:56:54.398Z,28.9
2018-04-08T14:02:24.669Z,29.3
2018-04-08T14:07:54.416Z,29.1
2018-04-08T14:13:24.144Z,29
2018-04-08T14:18:53.951Z,29.3
2018-04-08T14:24:23.713Z,29.8
2018-04-08T14:29:54.575Z,30.1
2018-04-08T14:35:25.515Z,30.6
2018-04-08T14:40:55.501Z,30.4
2018-04-08T14:46:25.514Z,29.6
2018-04-08T14:51:55.450Z,29.6
2018-04-08T14:57:26.155Z,30.1
2018-04-08T15:02:57.392Z,30.1
2018-04-08T15:08:27.583Z,25.1
2018-04-08T15:13:56.637Z,22.5
2018-04-08T15:19:25.556Z,21.5
2018-04-08T15:24:54.150Z,20.9
2018-04-08T15:30:22.824Z,20.6
2018-04-08T15:35:52.282Z,20.3
2018-04-08T15:41:20.812Z,20.1
2018-04-08T15:46:49.303Z,20.1
2018-04-08T15:57:47.351Z,20
2018-04-08T16:03:15.866Z,19.9
2018-04-08T16:08:45.384Z,19.9
2018-04-08T16:14:13.802Z,19.7
2018-04-08T16:19:42.271Z,19.7
2018-04-08T16:25:11.735Z,19.6
2018-04-08T16:30:41.265Z,19.5
2018-04-08T16:36:10.586Z,19.3
2018-04-08T16:41:39.997Z,19.1
2018-04-08T16:47:08.561Z,18.9
2018-04-08T16:52:36.781Z,18.7
2018-04-08T17:03:34.480Z,18.3
2018-04-08T17:09:03.796Z,18.1
2018-04-08T17:14:32.130Z,17.9
2018-04-08T17:20:00.405Z,17.7
2018-04-08T17:25:29.542Z,17.5
2018-04-08T17:30:58.818Z,17.4
2018-04-08T17:36:26.992Z,17.3
2018-04-08T17:41:55.248Z,17.1
2018-04-08T17:47:24.377Z,17
2018-04-08T17:52:53.611Z,16.8
2018-04-08T17:58:22.783Z,16.7
2018-04-08T18:03:51.824Z,16.6
2018-04-08T18:09:20.188Z,16.5
2018-04-08T18:14:54.104Z,16.4
2018-04-08T18:20:18.428Z,16.3
2018-04-08T18:25:46.300Z,16.2
2018-04-08T18:36:44.503Z,16.1
2018-04-08T18:42:13.513Z,16.1
2018-04-08T18:47:41.593Z,16
2018-04-08T18:53:10.762Z,15.9
2018-04-08T18:58:38.735Z,16
2018-04-08T19:04:06.791Z,15.9
2018-04-08T19:09:35.876Z,15.9
2018-04-08T19:15:03.893Z,15.8
2018-04-08T19:20:32.980Z,15.8
2018-04-08T19:26:01.018Z,15.8
2018-04-08T19:31:30.013Z,15.7
2018-04-08T19:36:58.047Z,15.7
2018-04-08T19:42:27.056Z,15.6
2018-04-08T19:47:55.072Z,15.6
2018-04-08T19:53:23.076Z,15.5
2018-04-08T19:58:51.060Z,15.4
2018-04-08T20:04:20.134Z,15.4
2018-04-08T20:09:48.059Z,15.3
2018-04-08T20:15:17.041Z,15.3
2018-04-08T20:20:46.150Z,15.2
2018-04-08T20:26:13.962Z,15.2
2018-04-08T20:31:42.945Z,15.2
2018-04-08T20:37:10.885Z,15
2018-04-08T20:42:38.831Z,15
2018-04-08T20:48:07.812Z,14.9
2018-04-08T20:53:35.745Z,14.8
2018-04-08T20:59:04.647Z,14.7
2018-04-08T21:04:33.789Z,14.6
2018-04-08T21:10:02.884Z,14.5
2018-04-08T21:15:30.321Z,14.5
2018-04-08T21:20:59.231Z,14.5
2018-04-08T21:26:28.168Z,14.5
2018-04-08T21:31:57.008Z,14.5
2018-04-08T21:37:25.925Z,14.5
2018-04-08T21:42:54.074Z,14.5
2018-04-08T21:48:22.720Z,14.5
2018-04-08T21:53:51.586Z,14.5
2018-04-08T21:59:19.485Z,14.4
2018-04-08T22:04:47.353Z,14.4
2018-04-08T22:10:16.249Z,14.4
2018-04-08T22:15:45.169Z,14.4
2018-04-08T22:21:13.000Z,14.4
2018-04-08T22:26:41.879Z,14.4
2018-04-08T22:32:09.777Z,14.3
2018-04-08T22:37:38.660Z,14.2
2018-04-08T22:43:07.475Z,14.1
2018-04-08T22:48:35.337Z,14.1
2018-04-08T22:54:03.197Z,14.1
2018-04-08T22:59:32.037Z,14
2018-04-08T23:04:59.894Z,14
2018-04-08T23:10:27.712Z,14
2018-04-08T23:15:55.600Z,14.1
2018-04-08T23:21:24.427Z,14.1
2018-04-08T23:26:52.347Z,14.1
2018-04-08T23:32:21.231Z,14.1
2018-04-08T23:37:49.983Z,14.2
2018-04-08T23:43:17.930Z,14.2
2018-04-08T23:48:45.714Z,14.2
2018-04-08T23:54:13.534Z,14.1
2018-04-08T23:59:42.388Z,14.1
